DAL1918 MYNN-KJFK
Flight info
| Callsign | DAL1918 |
|---|---|
| Flight time | N/A |
| Altitude | 36000 |
| Route | INGRA G437 ELBOW DCT JAZZI DCT SAGGY DCT CHIEZ Q161 KALDA Q108 SIE CAMRN5 |
| Aircraft | B739/M-SDE2E3FGHIRWXY/LB1 |
Departure
| Time | 2026-05-07 21:49 |
|---|---|
| Airport | Lynden Pindling International Airport (MYNN) |
Arrival
| Time | N/A |
|---|---|
| Airport | John F. Kennedy International Airport (KJFK) |
| Time | Latitude | Longitude | Altitude | Speed | Heading |
|---|---|---|---|---|---|
| 2026-05-07 21:35 | 25.05077 | -77.46754 | 16 ft | 0 kts | 26° |
| 2026-05-07 21:40 | 25.05074 | -77.46756 | 16 ft | 2 kts | 27° |
| 2026-05-07 21:40 | 25.05057 | -77.46765 | 18 ft | 3 kts | 32° |
| 2026-05-07 21:40 | 25.05040 | -77.46778 | 19 ft | 3 kts | 39° |
| 2026-05-07 21:40 | 25.05025 | -77.46793 | 17 ft | 3 kts | 46° |
| 2026-05-07 21:41 | 25.05012 | -77.46809 | 17 ft | 3 kts | 52° |
| 2026-05-07 21:41 | 25.05000 | -77.46827 | 16 ft | 3 kts | 59° |
| 2026-05-07 21:41 | 25.04990 | -77.46847 | 17 ft | 3 kts | 66° |
| 2026-05-07 21:41 | 25.04983 | -77.46868 | 17 ft | 3 kts | 70° |
| 2026-05-07 21:42 | 25.04976 | -77.46888 | 18 ft | 3 kts | 66° |
| 2026-05-07 21:42 | 25.04968 | -77.46905 | 20 ft | 3 kts | 51° |
| 2026-05-07 21:42 | 25.04959 | -77.46915 | 20 ft | 3 kts | 347° |
| 2026-05-07 21:42 | 25.04949 | -77.46908 | 19 ft | 3 kts | 281° |
| 2026-05-07 21:43 | 25.04949 | -77.46896 | 19 ft | 1 kts | 247° |
| 2026-05-07 21:43 | 25.04955 | -77.46879 | 17 ft | 3 kts | 244° |
| 2026-05-07 21:43 | 25.04964 | -77.46859 | 18 ft | 3 kts | 243° |
| 2026-05-07 21:43 | 25.04970 | -77.46847 | 19 ft | 0 kts | 244° |
| 2026-05-07 21:45 | 25.04962 | -77.46864 | 19 ft | 6 kts | 244° |
| 2026-05-07 21:46 | 25.04940 | -77.46910 | 17 ft | 7 kts | 232° |
| 2026-05-07 21:46 | 25.04900 | -77.46965 | 16 ft | 11 kts | 253° |
| 2026-05-07 21:46 | 25.04948 | -77.47051 | 17 ft | 18 kts | 315° |
| 2026-05-07 21:46 | 25.05057 | -77.47173 | 18 ft | 25 kts | 314° |
| 2026-05-07 21:47 | 25.05173 | -77.47303 | 17 ft | 23 kts | 315° |
| 2026-05-07 21:47 | 25.05202 | -77.47462 | 19 ft | 22 kts | 258° |
| 2026-05-07 21:47 | 25.05099 | -77.47479 | 19 ft | 20 kts | 134° |
| 2026-05-07 21:47 | 25.04987 | -77.47355 | 18 ft | 36 kts | 134° |
| 2026-05-07 21:48 | 25.04665 | -77.46995 | 22 ft | 95 kts | 135° |
| 2026-05-07 21:48 | 25.04077 | -77.46342 | 17 ft | 142 kts | 135° |
| 2026-05-07 21:48 | 25.03293 | -77.45469 | 57 ft | 173 kts | 133° |
| 2026-05-07 21:48 | 25.02462 | -77.44485 | 408 ft | 181 kts | 130° |
| 2026-05-07 21:49 | 25.01848 | -77.43259 | 823 ft | 186 kts | 102° |
| 2026-05-07 21:49 | 25.01985 | -77.41842 | 1282 ft | 193 kts | 66° |
| 2026-05-07 21:49 | 25.02869 | -77.40654 | 1472 ft | 213 kts | 38° |
| 2026-05-07 21:49 | 25.04069 | -77.39570 | 1618 ft | 230 kts | 42° |
| 2026-05-07 21:50 | 25.05306 | -77.38374 | 1778 ft | 243 kts | 40° |
| 2026-05-07 21:50 | 25.06822 | -77.37499 | 2107 ft | 252 kts | 20° |
| 2026-05-07 21:50 | 25.08537 | -77.36857 | 2352 ft | 266 kts | 18° |
| 2026-05-07 21:50 | 25.10330 | -77.36225 | 2805 ft | 273 kts | 17° |
| 2026-05-07 21:51 | 25.12129 | -77.35582 | 3487 ft | 271 kts | 18° |
| 2026-05-07 21:51 | 25.13923 | -77.34925 | 4056 ft | 274 kts | 18° |
| 2026-05-07 21:51 | 25.15749 | -77.34242 | 4574 ft | 279 kts | 17° |
| 2026-05-07 21:51 | 25.17597 | -77.33539 | 5107 ft | 283 kts | 18° |
| 2026-05-07 21:52 | 25.19459 | -77.32822 | 5690 ft | 284 kts | 18° |
| 2026-05-07 21:52 | 25.21328 | -77.32097 | 6273 ft | 286 kts | 18° |
| 2026-05-07 21:52 | 25.23182 | -77.31374 | 6819 ft | 287 kts | 18° |
| 2026-05-07 21:52 | 25.25068 | -77.30636 | 7407 ft | 288 kts | 19° |
| 2026-05-07 21:53 | 25.26955 | -77.29896 | 7992 ft | 288 kts | 19° |
| 2026-05-07 21:53 | 25.28853 | -77.29151 | 8566 ft | 290 kts | 19° |
| 2026-05-07 21:53 | 25.30752 | -77.28404 | 9197 ft | 289 kts | 20° |
| 2026-05-07 21:53 | 25.32654 | -77.27656 | 9791 ft | 291 kts | 20° |
| 2026-05-07 21:54 | 25.34574 | -77.26901 | 10287 ft | 296 kts | 20° |
| 2026-05-07 21:54 | 25.36577 | -77.26111 | 10412 ft | 315 kts | 20° |
| 2026-05-07 21:54 | 25.38699 | -77.25275 | 10542 ft | 332 kts | 20° |
| 2026-05-07 21:54 | 25.40927 | -77.24398 | 10651 ft | 348 kts | 20° |
| 2026-05-07 21:55 | 25.43257 | -77.23480 | 10758 ft | 363 kts | 20° |
| 2026-05-07 21:55 | 25.45678 | -77.22525 | 10863 ft | 376 kts | 20° |
| 2026-05-07 21:55 | 25.48149 | -77.21451 | 10948 ft | 388 kts | 23° |
| 2026-05-07 21:55 | 25.50635 | -77.20216 | 11127 ft | 395 kts | 25° |
| 2026-05-07 21:56 | 25.53135 | -77.18918 | 11462 ft | 398 kts | 25° |
| 2026-05-07 21:56 | 25.55636 | -77.17606 | 11851 ft | 399 kts | 25° |
| 2026-05-07 21:56 | 25.58150 | -77.16292 | 12226 ft | 401 kts | 25° |
| 2026-05-07 21:56 | 25.60680 | -77.14977 | 12586 ft | 403 kts | 25° |
| 2026-05-07 21:57 | 25.63230 | -77.13660 | 12945 ft | 405 kts | 24° |
| 2026-05-07 21:57 | 25.65795 | -77.12340 | 13317 ft | 408 kts | 24° |
| 2026-05-07 21:57 | 25.68377 | -77.11014 | 13695 ft | 410 kts | 24° |
| 2026-05-07 21:57 | 25.70971 | -77.09683 | 14049 ft | 412 kts | 24° |
| 2026-05-07 21:58 | 25.73578 | -77.08346 | 14411 ft | 413 kts | 24° |
| 2026-05-07 21:58 | 25.76193 | -77.07005 | 14788 ft | 415 kts | 24° |
| 2026-05-07 21:58 | 25.78817 | -77.05658 | 15157 ft | 416 kts | 24° |
| 2026-05-07 21:58 | 25.81450 | -77.04306 | 15514 ft | 418 kts | 24° |
| 2026-05-07 21:59 | 25.84093 | -77.02948 | 15875 ft | 419 kts | 23° |
| 2026-05-07 21:59 | 25.86745 | -77.01584 | 16226 ft | 421 kts | 23° |
| 2026-05-07 21:59 | 25.89411 | -77.00213 | 16571 ft | 423 kts | 23° |
| 2026-05-07 21:59 | 25.92085 | -76.98836 | 16908 ft | 424 kts | 23° |
| 2026-05-07 22:00 | 25.94767 | -76.97455 | 17250 ft | 426 kts | 23° |
| 2026-05-07 22:00 | 25.97462 | -76.96066 | 17584 ft | 428 kts | 23° |
| 2026-05-07 22:00 | 26.00128 | -76.94692 | 17888 ft | 430 kts | 22° |
| 2026-05-07 22:00 | 26.02849 | -76.93289 | 18206 ft | 431 kts | 22° |
| 2026-05-07 22:01 | 26.05575 | -76.91882 | 18496 ft | 433 kts | 22° |
| 2026-05-07 22:01 | 26.08316 | -76.90467 | 18742 ft | 435 kts | 22° |
| 2026-05-07 22:01 | 26.11068 | -76.89046 | 18981 ft | 437 kts | 22° |
| 2026-05-07 22:01 | 26.13833 | -76.87617 | 19226 ft | 439 kts | 22° |
| 2026-05-07 22:02 | 26.16608 | -76.86182 | 19473 ft | 441 kts | 22° |
| 2026-05-07 22:02 | 26.19391 | -76.84741 | 19756 ft | 441 kts | 22° |
| 2026-05-07 22:02 | 26.22176 | -76.83300 | 19999 ft | 443 kts | 22° |
| 2026-05-07 22:02 | 26.24975 | -76.81850 | 20215 ft | 445 kts | 22° |
| 2026-05-07 22:03 | 26.27790 | -76.80391 | 20428 ft | 447 kts | 22° |
| 2026-05-07 22:03 | 26.30614 | -76.78926 | 20630 ft | 449 kts | 22° |
| 2026-05-07 22:03 | 26.33452 | -76.77453 | 20854 ft | 450 kts | 22° |
| 2026-05-07 22:03 | 26.36300 | -76.75975 | 21068 ft | 452 kts | 22° |
| 2026-05-07 22:04 | 26.39169 | -76.74534 | 21267 ft | 452 kts | 18° |
| 2026-05-07 22:04 | 26.42187 | -76.73613 | 21445 ft | 449 kts | 6° |
| 2026-05-07 22:04 | 26.44240 | -76.73375 | 21588 ft | 447 kts | 360° |
| 2026-05-07 22:04 | 26.47335 | -76.73501 | 21787 ft | 445 kts | 349° |
| 2026-05-07 22:05 | 26.50379 | -76.74096 | 21980 ft | 445 kts | 347° |
| 2026-05-07 22:05 | 26.53425 | -76.74734 | 22161 ft | 446 kts | 347° |